createdAt,value
2023-02-01T00:00:00.013Z,100479.47
2023-02-01T00:02:26.595Z,100469.84
2023-02-01T00:04:53.157Z,100468.31
2023-02-01T00:07:19.633Z,100473.38
2023-02-01T00:09:46.171Z,100472.16
2023-02-01T00:12:12.823Z,100471.41
2023-02-01T00:14:40.474Z,100475.66
2023-02-01T00:17:07.673Z,100479.03
2023-02-01T00:19:35.151Z,100472.25
2023-02-01T00:22:01.898Z,100466.44
2023-02-01T00:24:28.770Z,100468.97
2023-02-01T00:26:55.296Z,100468.97
2023-02-01T00:29:21.809Z,100456.53
2023-02-01T00:31:51.171Z,100466.25
2023-02-01T00:34:20.107Z,100469.59
2023-02-01T00:36:46.739Z,100469.13
2023-02-01T00:39:13.335Z,100469.84
2023-02-01T00:41:39.917Z,100470.56
2023-02-01T00:44:06.395Z,100474.22
2023-02-01T00:46:33.171Z,100470.94
2023-02-01T00:48:59.965Z,100486.41
2023-02-01T00:51:28.406Z,100492.44
2023-02-01T00:53:54.998Z,100485.56
2023-02-01T00:56:21.575Z,100491.69
2023-02-01T00:58:48.419Z,100489.44
2023-02-01T01:01:20.518Z,100503.66
2023-02-01T01:03:51.518Z,100492.25
2023-02-01T01:06:21.938Z,100503.19
2023-02-01T01:08:48.886Z,100497.72
2023-02-01T01:11:19.219Z,100484.75
2023-02-01T01:13:48.625Z,100487.38
2023-02-01T01:16:16.547Z,100490.09
2023-02-01T01:18:44.049Z,100490.09
2023-02-01T01:21:14.101Z,100477.88
2023-02-01T01:23:40.894Z,100477.50
2023-02-01T01:26:10.296Z,100464.78
2023-02-01T01:28:36.879Z,100471.75
2023-02-01T01:31:03.798Z,100464.22
2023-02-01T01:33:30.412Z,100460.81
2023-02-01T01:35:57.075Z,100445.75
2023-02-01T01:38:23.488Z,100453.00
2023-02-01T01:40:53.149Z,100448.31
2023-02-01T01:43:23.395Z,100451.50
2023-02-01T01:45:51.232Z,100453.66
2023-02-01T01:48:23.142Z,100433.88
2023-02-01T01:50:55.804Z,100437.09
2023-02-01T01:53:27.131Z,100433.88
2023-02-01T01:55:55.819Z,100439.59
2023-02-01T01:58:26.277Z,100441.84
2023-02-01T02:00:54.921Z,100445.91
2023-02-01T02:03:39.768Z,100441.47
2023-02-01T02:07:23.916Z,100449.13
2023-02-01T02:09:59.917Z,100454.47
2023-02-01T02:12:27.662Z,100461.34
2023-02-01T02:14:54.840Z,100459.66
2023-02-01T02:17:32.447Z,100453.63
2023-02-01T02:20:06.109Z,100453.56
2023-02-01T02:22:52.776Z,100443.28
2023-02-01T02:25:27.995Z,100455.13
2023-02-01T02:28:06.293Z,100457.88
2023-02-01T02:30:52.229Z,100454.28
2023-02-01T02:33:47.433Z,100444.31
2023-02-01T02:36:26.166Z,100446.81
2023-02-01T02:39:15.041Z,100447.03
2023-02-01T02:42:31.467Z,100440.91
2023-02-01T02:45:41.537Z,100437.31
2023-02-01T02:48:07.934Z,100431.00
2023-02-01T02:51:06.181Z,100428.38
2023-02-01T02:54:06.050Z,100437.97
2023-02-01T02:56:51.773Z,100432.03
2023-02-01T02:59:40.723Z,100427.34
2023-02-01T03:02:27.510Z,100428.81
2023-02-01T03:04:58.295Z,100430.69
2023-02-01T03:07:59.321Z,100418.38
2023-02-01T03:10:43.596Z,100418.38
2023-02-01T03:13:17.579Z,100410.06
2023-02-01T03:16:16.268Z,100409.31
2023-02-01T03:18:51.347Z,100403.00
2023-02-01T03:21:23.038Z,100402.69
2023-02-01T03:23:52.430Z,100389.19
2023-02-01T03:26:21.474Z,100384.88
2023-02-01T03:28:55.736Z,100390.56
2023-02-01T03:31:23.580Z,100377.69
2023-02-01T03:33:50.675Z,100369.13
2023-02-01T03:36:32.274Z,100380.97
2023-02-01T03:39:18.913Z,100367.00
2023-02-01T03:41:52.222Z,100371.13
2023-02-01T03:44:27.285Z,100368.09
2023-02-01T03:47:20.229Z,100368.81
2023-02-01T03:50:00.553Z,100365.97
2023-02-01T03:52:35.148Z,100367.97
2023-02-01T03:55:03.130Z,100368.63
2023-02-01T03:57:36.566Z,100368.41
2023-02-01T04:00:25.549Z,100371.06
2023-02-01T04:02:53.249Z,100365.88
2023-02-01T04:05:20.297Z,100369.25
2023-02-01T04:07:46.806Z,100369.06
2023-02-01T04:10:13.780Z,100365.25
2023-02-01T04:12:41.874Z,100371.09
2023-02-01T04:15:09.035Z,100369.19
2023-02-01T04:17:35.484Z,100367.38
2023-02-01T04:20:01.960Z,100371.50
2023-02-01T04:22:29.775Z,100367.75
2023-02-01T04:24:56.305Z,100358.97
2023-02-01T04:27:22.798Z,100369.94
2023-02-01T04:29:52.163Z,100363.41
2023-02-01T04:32:21.831Z,100372.09
2023-02-01T04:34:48.249Z,100356.22
2023-02-01T04:37:14.823Z,100355.63
2023-02-01T04:39:41.244Z,100366.38
2023-02-01T04:42:07.763Z,100355.06
2023-02-01T04:44:34.216Z,100345.66
2023-02-01T04:47:00.778Z,100356.09
2023-02-01T04:49:27.818Z,100341.78
2023-02-01T04:51:54.496Z,100348.22
2023-02-01T04:54:20.974Z,100344.00
2023-02-01T04:56:47.415Z,100340.22
2023-02-01T04:59:14.135Z,100347.81
2023-02-01T05:01:40.705Z,100343.38
2023-02-01T05:04:07.249Z,100339.88
2023-02-01T05:06:33.726Z,100330.69
2023-02-01T05:09:00.270Z,100332.69
2023-02-01T05:11:45.269Z,100324.25
2023-02-01T05:14:12.073Z,100320.56
2023-02-01T05:16:38.571Z,100317.41
2023-02-01T05:19:05.080Z,100314.56
2023-02-01T05:21:31.578Z,100314.00
2023-02-01T05:24:20.730Z,100301.78
2023-02-01T05:26:48.904Z,100312.44
2023-02-01T05:29:16.448Z,100301.34
2023-02-01T05:31:45.914Z,100315.06
2023-02-01T05:34:12.711Z,100311.06
2023-02-01T05:36:39.424Z,100308.31
2023-02-01T05:39:06.023Z,100310.66
2023-02-01T05:41:32.511Z,100310.00
2023-02-01T05:43:58.944Z,100313.81
2023-02-01T05:46:25.655Z,100309.91
2023-02-01T05:48:52.238Z,100312.53
2023-02-01T05:51:18.711Z,100304.72
2023-02-01T05:53:45.215Z,100292.25
2023-02-01T05:56:11.861Z,100302.81
2023-02-01T05:58:38.448Z,100292.38
2023-02-01T06:01:05.133Z,100290.38
2023-02-01T06:03:31.682Z,100286.97
2023-02-01T06:05:58.463Z,100290.78
2023-02-01T06:08:26.533Z,100281.50
2023-02-01T06:11:01.744Z,100283.41
2023-02-01T06:13:28.823Z,100291.41
2023-02-01T06:15:56.811Z,100291.41
2023-02-01T06:18:24.151Z,100287.72
2023-02-01T06:20:55.901Z,100281.69
2023-02-01T06:23:24.790Z,100285.63
2023-02-01T06:25:53.163Z,100281.69
2023-02-01T06:28:20.082Z,100288.47
2023-02-01T06:30:47.113Z,100291.00
2023-02-01T06:33:18.614Z,100275.91
2023-02-01T06:35:45.886Z,100279.50
2023-02-01T06:38:12.725Z,100277.59
2023-02-01T06:40:39.922Z,100274.88
2023-02-01T06:43:06.661Z,100276.00
2023-02-01T06:45:33.153Z,100280.66
2023-02-01T06:48:01.591Z,100274.75
2023-02-01T06:50:28.680Z,100272.63
2023-02-01T06:52:56.000Z,100252.47
2023-02-01T06:55:22.542Z,100260.28
2023-02-01T06:57:49.156Z,100256.16
2023-02-01T07:00:15.970Z,100251.53
2023-02-01T07:02:42.466Z,100251.31
2023-02-01T07:05:09.583Z,100253.41
2023-02-01T07:07:36.013Z,100244.13
2023-02-01T07:10:02.535Z,100248.34
2023-02-01T07:12:29.150Z,100249.72
2023-02-01T07:14:55.678Z,100245.50
2023-02-01T07:17:22.103Z,100236.19
2023-02-01T07:19:48.532Z,100246.25
2023-02-01T07:22:18.141Z,100238.13
2023-02-01T07:24:44.609Z,100233.16
2023-02-01T07:27:11.244Z,100227.97
2023-02-01T07:29:37.865Z,100226.41
2023-02-01T07:32:04.501Z,100227.44
2023-02-01T07:34:31.828Z,100219.19
2023-02-01T07:36:58.326Z,100216.44
2023-02-01T07:39:24.853Z,100220.06
2023-02-01T07:41:51.407Z,100227.75
2023-02-01T07:44:23.522Z,100223.97
2023-02-01T07:46:50.943Z,100216.69
2023-02-01T07:49:18.528Z,100227.44
2023-02-01T07:51:45.304Z,100227.78
2023-02-01T07:54:11.829Z,100223.75
2023-02-01T07:56:38.324Z,100219.22
2023-02-01T07:59:04.864Z,100219.97
2023-02-01T08:01:31.481Z,100212.41
2023-02-01T08:04:00.543Z,100210.81
2023-02-01T08:06:28.608Z,100212.06
2023-02-01T08:08:58.471Z,100210.78
2023-02-01T08:11:26.361Z,100202.16
2023-02-01T08:13:53.575Z,100206.16
2023-02-01T08:16:22.086Z,100217.13
2023-02-01T08:18:48.809Z,100207.81
2023-02-01T08:21:24.882Z,100205.81
2023-02-01T08:23:51.837Z,100204.13
2023-02-01T08:26:24.484Z,100201.81
2023-02-01T08:28:57.709Z,100202.34
2023-02-01T08:31:26.156Z,100206.13
2023-02-01T08:33:56.038Z,100212.78
2023-02-01T08:36:24.843Z,100210.66
2023-02-01T08:38:51.392Z,100206.13
2023-02-01T08:41:23.442Z,100207.19
2023-02-01T08:43:50.427Z,100217.94
2023-02-01T08:46:17.597Z,100221.22
2023-02-01T08:48:46.065Z,100213.53
2023-02-01T08:51:14.264Z,100218.28
2023-02-01T08:53:44.107Z,100227.03
2023-02-01T08:56:13.100Z,100220.91
2023-02-01T08:58:39.905Z,100227.66
2023-02-01T09:01:08.689Z,100223.44
2023-02-01T09:03:35.494Z,100242.84
2023-02-01T09:06:07.621Z,100250.84
2023-02-01T09:08:35.313Z,100249.72
2023-02-01T09:11:03.968Z,100245.34
2023-02-01T09:13:30.700Z,100252.75
2023-02-01T09:15:57.231Z,100252.13
2023-02-01T09:18:23.984Z,100256.13
2023-02-01T09:20:50.469Z,100263.22
2023-02-01T09:23:16.950Z,100263.94
2023-02-01T09:25:43.948Z,100263.22
2023-02-01T09:28:10.550Z,100273.56
2023-02-01T09:30:37.664Z,100272.19
2023-02-01T09:33:04.514Z,100280.31
2023-02-01T09:35:31.122Z,100281.69
2023-02-01T09:37:57.852Z,100290.34
2023-02-01T09:40:24.903Z,100282.09
2023-02-01T09:43:47.297Z,100290.34
2023-02-01T09:46:25.483Z,100291.28
2023-02-01T09:48:55.841Z,100300.38
2023-02-01T09:51:36.834Z,100303.56
2023-02-01T09:54:13.919Z,100303.63
2023-02-01T09:56:47.165Z,100298.16
2023-02-01T09:59:32.076Z,100308.50
2023-02-01T10:02:00.675Z,100310.91
2023-02-01T10:04:27.534Z,100302.16
2023-02-01T10:07:02.896Z,100305.84
2023-02-01T10:09:35.266Z,100315.97
2023-02-01T10:12:39.523Z,100312.00
2023-02-01T10:15:45.192Z,100316.81
2023-02-01T10:18:38.829Z,100316.75
2023-02-01T10:21:08.223Z,100316.00
2023-02-01T10:23:58.933Z,100310.75
2023-02-01T10:26:36.029Z,100309.78
2023-02-01T10:29:05.745Z,100313.81
2023-02-01T10:31:39.194Z,100311.69
2023-02-01T10:34:18.446Z,100315.91
2023-02-01T10:37:02.086Z,100319.00
2023-02-01T10:39:28.988Z,100314.34
2023-02-01T10:41:57.201Z,100325.72
2023-02-01T10:44:28.148Z,100316.53
2023-02-01T10:46:54.646Z,100315.59
2023-02-01T10:49:25.312Z,100317.91
2023-02-01T10:52:14.262Z,100319.81
2023-02-01T10:54:41.506Z,100308.84
2023-02-01T10:57:11.351Z,100319.81
2023-02-01T10:59:39.331Z,100316.31
2023-02-01T11:02:30.151Z,100320.56
2023-02-01T11:05:13.145Z,100320.03
2023-02-01T11:07:47.167Z,100312.63
2023-02-01T11:10:39.989Z,100300.72
2023-02-01T11:13:12.534Z,100308.44
2023-02-01T11:15:39.154Z,100307.34
2023-02-01T11:18:17.752Z,100299.00
2023-02-01T11:20:46.811Z,100296.69
2023-02-01T11:23:18.904Z,100297.06
2023-02-01T11:25:57.885Z,100296.03
2023-02-01T11:28:27.312Z,100293.38
2023-02-01T11:30:57.267Z,100285.53
2023-02-01T11:33:30.775Z,100274.63
2023-02-01T11:35:59.465Z,100282.34
2023-02-01T11:38:31.319Z,100267.66
2023-02-01T11:41:23.799Z,100263.00
2023-02-01T11:43:56.100Z,100266.75
2023-02-01T11:46:34.937Z,100257.22
2023-02-01T11:49:28.084Z,100252.25
2023-02-01T11:52:03.368Z,100249.72
2023-02-01T11:54:54.520Z,100242.19
2023-02-01T11:57:38.464Z,100239.25
2023-02-01T12:00:21.116Z,100240.34
2023-02-01T12:02:47.843Z,100233.28
2023-02-01T12:05:36.153Z,100232.38
2023-02-01T12:08:18.724Z,100225.97
2023-02-01T12:11:06.245Z,100229.34
2023-02-01T12:13:48.217Z,100222.88
2023-02-01T12:16:39.079Z,100216.00
2023-02-01T12:19:17.574Z,100222.13
2023-02-01T12:21:55.971Z,100217.44
2023-02-01T12:24:56.334Z,100217.56
2023-02-01T12:27:46.017Z,100205.59
2023-02-01T12:30:26.337Z,100201.06
2023-02-01T12:33:05.367Z,100201.00
2023-02-01T12:35:45.683Z,100200.91
2023-02-01T12:38:18.340Z,100189.56
2023-02-01T12:41:05.496Z,100190.16
2023-02-01T12:43:53.720Z,100188.13
2023-02-01T12:46:44.503Z,100180.66
2023-02-01T12:49:41.019Z,100174.75
2023-02-01T12:52:14.969Z,100168.31
2023-02-01T12:54:59.238Z,100163.03
2023-02-01T12:57:31.848Z,100159.84
2023-02-01T13:00:07.646Z,100156.03
2023-02-01T13:02:43.432Z,100164.19
2023-02-01T13:05:14.539Z,100155.53
2023-02-01T13:07:48.952Z,100154.94
2023-02-01T13:10:32.098Z,100162.63
2023-02-01T13:13:34.419Z,100160.84
2023-02-01T13:16:28.200Z,100164.47
2023-02-01T13:19:01.701Z,100165.31
2023-02-01T13:21:34.317Z,100172.28
2023-02-01T13:24:00.928Z,100168.66
2023-02-01T13:26:27.536Z,100164.34
2023-02-01T13:29:02.748Z,100170.34
2023-02-01T13:32:06.822Z,100169.38
2023-02-01T13:35:01.153Z,100163.72
2023-02-01T13:37:57.781Z,100167.47
2023-02-01T13:40:48.699Z,100155.91
2023-02-01T13:43:20.128Z,100147.25
2023-02-01T13:45:51.644Z,100152.19
2023-02-01T13:48:40.189Z,100142.56
2023-02-01T13:51:07.669Z,100141.59
2023-02-01T13:53:44.500Z,100137.75
2023-02-01T13:56:13.855Z,100123.69
2023-02-01T13:58:42.510Z,100134.28
2023-02-01T14:01:24.671Z,100130.53
2023-02-01T14:04:07.349Z,100116.72
2023-02-01T14:06:40.873Z,100127.91
2023-02-01T14:09:31.262Z,100113.63
2023-02-01T14:11:58.760Z,100115.75
2023-02-01T14:14:25.366Z,100115.53
2023-02-01T14:16:54.881Z,100108.88
2023-02-01T14:19:27.355Z,100094.34
2023-02-01T14:21:59.511Z,100101.44
2023-02-01T14:24:27.701Z,100093.38
2023-02-01T14:26:56.808Z,100076.81
2023-02-01T14:29:36.161Z,100080.88
2023-02-01T14:32:20.239Z,100072.94
2023-02-01T14:34:49.877Z,100065.13
2023-02-01T14:37:19.402Z,100055.41
2023-02-01T14:39:45.825Z,100063.59
2023-02-01T14:42:28.363Z,100040.97
2023-02-01T14:45:16.195Z,100057.56
2023-02-01T14:47:43.251Z,100044.47
2023-02-01T14:50:25.173Z,100043.38
2023-02-01T14:53:24.267Z,100035.00
2023-02-01T14:56:21.441Z,100042.31
2023-02-01T14:59:10.782Z,100033.31
2023-02-01T15:01:40.052Z,100034.25
2023-02-01T15:04:09.998Z,100029.94
2023-02-01T15:06:43.201Z,100046.00
2023-02-01T15:09:15.407Z,100048.72
2023-02-01T15:12:01.707Z,100063.34
2023-02-01T15:14:31.676Z,100046.88
2023-02-01T15:16:58.200Z,100059.09
2023-02-01T15:19:28.094Z,100055.09
2023-02-01T15:21:57.870Z,100064.66
2023-02-01T15:24:30.006Z,100057.75
2023-02-01T15:27:02.653Z,100065.06
2023-02-01T15:29:33.321Z,100061.44
2023-02-01T15:32:01.133Z,100055.22
2023-02-01T15:34:47.875Z,100062.41
2023-02-01T15:37:21.293Z,100066.22
2023-02-01T15:40:12.855Z,100065.94
2023-02-01T15:42:51.285Z,100059.91
2023-02-01T15:45:23.933Z,100056.47
2023-02-01T15:47:53.608Z,100058.66
2023-02-01T15:50:23.339Z,100055.53
2023-02-01T15:52:53.580Z,100062.47
2023-02-01T15:55:34.337Z,100064.16
2023-02-01T15:58:00.950Z,100068.72
2023-02-01T16:00:44.317Z,100084.84
2023-02-01T16:03:25.677Z,100103.63
2023-02-01T16:05:59.559Z,100113.53
2023-02-01T16:08:29.001Z,100121.38
2023-02-01T16:11:03.234Z,100115.25
2023-02-01T16:13:29.685Z,100134.84
2023-02-01T16:15:56.197Z,100127.97
2023-02-01T16:18:22.800Z,100128.66
2023-02-01T16:20:49.461Z,100120.84
2023-02-01T16:23:16.211Z,100113.06
2023-02-01T16:25:42.747Z,100098.94
2023-02-01T16:28:09.672Z,100103.25
2023-02-01T16:30:37.049Z,100100.69
2023-02-01T16:33:05.872Z,100095.16
2023-02-01T16:35:37.712Z,100106.41
2023-02-01T16:38:09.753Z,100112.72
2023-02-01T16:40:36.660Z,100120.63
2023-02-01T16:43:04.491Z,100120.06
2023-02-01T16:45:31.095Z,100126.53
2023-02-01T16:47:58.275Z,100133.13
2023-02-01T16:50:26.807Z,100134.84
2023-02-01T16:52:54.289Z,100136.72
2023-02-01T16:55:22.909Z,100131.75
2023-02-01T16:57:50.213Z,100144.59
2023-02-01T17:00:25.790Z,100146.59
2023-02-01T17:02:53.823Z,100149.97
2023-02-01T17:05:20.516Z,100153.25
2023-02-01T17:07:47.120Z,100149.88
2023-02-01T17:10:34.056Z,100141.56
2023-02-01T17:13:01.417Z,100145.94
2023-02-01T17:15:35.555Z,100140.19
2023-02-01T17:18:03.029Z,100148.72
2023-02-01T17:20:33.078Z,100139.16
2023-02-01T17:23:00.319Z,100148.44
2023-02-01T17:25:28.697Z,100141.47
2023-02-01T17:27:55.251Z,100137.47
2023-02-01T17:30:22.150Z,100147.63
2023-02-01T17:32:48.856Z,100145.75
2023-02-01T17:35:22.282Z,100147.84
2023-02-01T17:37:49.922Z,100146.81
2023-02-01T17:40:16.861Z,100156.06
2023-02-01T17:42:43.703Z,100152.72
2023-02-01T17:45:38.466Z,100163.25
2023-02-01T17:48:06.551Z,100156.41
2023-02-01T17:50:36.237Z,100153.56
2023-02-01T17:53:05.890Z,100156.97
2023-02-01T17:55:34.775Z,100153.69
2023-02-01T17:58:01.216Z,100155.38
2023-02-01T18:00:27.762Z,100160.31
2023-02-01T18:02:54.216Z,100161.56
2023-02-01T18:05:28.923Z,100169.38
2023-02-01T18:07:55.557Z,100174.25
2023-02-01T18:10:21.992Z,100172.13
2023-02-01T18:12:48.617Z,100187.41
2023-02-01T18:15:18.117Z,100169.50
2023-02-01T18:17:44.717Z,100174.97
2023-02-01T18:20:19.575Z,100177.97
2023-02-01T18:22:50.233Z,100184.69
2023-02-01T18:25:24.302Z,100190.41
2023-02-01T18:27:52.801Z,100184.59
2023-02-01T18:30:20.990Z,100185.34
2023-02-01T18:32:48.820Z,100198.41
2023-02-01T18:35:29.402Z,100193.03
2023-02-01T18:37:56.532Z,100190.28
2023-02-01T18:40:28.781Z,100188.63
2023-02-01T18:42:55.664Z,100194.59
2023-02-01T18:45:42.593Z,100182.50
2023-02-01T18:48:10.835Z,100184.81
2023-02-01T18:50:40.189Z,100189.34
2023-02-01T18:53:12.319Z,100197.03
2023-02-01T18:55:38.819Z,100184.63
2023-02-01T18:58:08.370Z,100200.09
2023-02-01T19:00:35.850Z,100204.94
2023-02-01T19:03:02.657Z,100204.03
2023-02-01T19:05:30.691Z,100215.44
2023-02-01T19:07:57.275Z,100206.34
2023-02-01T19:10:24.974Z,100211.28
2023-02-01T19:12:52.813Z,100204.47
2023-02-01T19:15:19.456Z,100206.34
2023-02-01T19:17:48.653Z,100214.56
2023-02-01T19:20:20.459Z,100207.28
2023-02-01T19:22:47.852Z,100208.38
2023-02-01T19:25:17.639Z,100219.19
2023-02-01T19:27:44.111Z,100218.75
2023-02-01T19:30:12.750Z,100230.38
2023-02-01T19:32:39.423Z,100228.06
2023-02-01T19:35:06.447Z,100218.28
2023-02-01T19:37:32.919Z,100238.94
2023-02-01T19:39:59.549Z,100228.50
2023-02-01T19:42:27.096Z,100225.97
2023-02-01T19:44:53.691Z,100218.59
2023-02-01T19:47:20.298Z,100227.47
2023-02-01T19:49:46.765Z,100237.56
2023-02-01T19:52:13.254Z,100236.94
2023-02-01T19:54:39.714Z,100237.81
2023-02-01T19:57:06.161Z,100241.03
2023-02-01T19:59:33.327Z,100226.81
2023-02-01T20:01:59.066Z,100238.72
2023-02-01T20:04:26.364Z,100241.72
2023-02-01T20:06:54.884Z,100239.28
2023-02-01T20:09:24.238Z,100228.63
2023-02-01T20:11:53.859Z,100228.91
2023-02-01T20:14:25.960Z,100228.88
2023-02-01T20:16:52.638Z,100226.59
2023-02-01T20:19:19.718Z,100217.28
2023-02-01T20:21:46.731Z,100226.59
2023-02-01T20:24:20.019Z,100223.50
2023-02-01T20:26:49.016Z,100222.56
2023-02-01T20:29:18.809Z,100229.31
2023-02-01T20:31:45.988Z,100234.38
2023-02-01T20:34:13.497Z,100232.47
2023-02-01T20:36:40.562Z,100241.13
2023-02-01T20:39:07.065Z,100253.34
2023-02-01T20:41:33.665Z,100230.75
2023-02-01T20:44:00.183Z,100237.41
2023-02-01T20:46:26.599Z,100229.09
2023-02-01T20:48:53.216Z,100229.31
2023-02-01T20:51:21.025Z,100226.31
2023-02-01T20:53:51.396Z,100227.81
2023-02-01T20:56:20.294Z,100219.91
2023-02-01T20:58:47.214Z,100219.81
2023-02-01T21:01:14.266Z,100224.28
2023-02-01T21:03:41.366Z,100219.75
2023-02-01T21:06:10.448Z,100228.81
2023-02-01T21:08:36.926Z,100238.06
2023-02-01T21:11:07.832Z,100230.34
2023-02-01T21:13:38.308Z,100215.09
2023-02-01T21:16:08.788Z,100224.44
2023-02-01T21:18:35.381Z,100234.91
2023-02-01T21:21:07.016Z,100218.66
2023-02-01T21:23:33.643Z,100224.25
2023-02-01T21:26:03.093Z,100233.00
2023-02-01T21:28:29.544Z,100220.44
2023-02-01T21:30:56.115Z,100236.97
2023-02-01T21:33:22.673Z,100226.63
2023-02-01T21:35:51.726Z,100226.44
2023-02-01T21:38:18.212Z,100224.00
2023-02-01T21:40:44.693Z,100231.06
2023-02-01T21:43:11.142Z,100230.22
2023-02-01T21:45:41.449Z,100238.13
2023-02-01T21:48:09.991Z,100243.06
2023-02-01T21:50:36.527Z,100240.63
2023-02-01T21:53:03.088Z,100249.19
2023-02-01T21:55:29.525Z,100249.59
2023-02-01T21:57:55.947Z,100242.63
2023-02-01T22:00:23.903Z,100236.44
2023-02-01T22:02:50.442Z,100244.34
2023-02-01T22:05:17.482Z,100237.16
2023-02-01T22:07:43.981Z,100247.88
2023-02-01T22:10:12.661Z,100245.81
2023-02-01T22:12:39.135Z,100248.16
2023-02-01T22:15:05.923Z,100247.31
2023-02-01T22:17:32.524Z,100257.09
2023-02-01T22:19:58.999Z,100252.78
2023-02-01T22:22:25.478Z,100236.00
2023-02-01T22:24:52.150Z,100241.09
2023-02-01T22:27:18.631Z,100252.19
2023-02-01T22:29:45.187Z,100256.34
2023-02-01T22:32:13.800Z,100253.63
2023-02-01T22:34:40.730Z,100246.66
2023-02-01T22:37:07.312Z,100256.88
2023-02-01T22:39:33.880Z,100249.00
2023-02-01T22:42:00.424Z,100247.13
2023-02-01T22:44:26.957Z,100253.09
2023-02-01T22:46:53.397Z,100243.53
2023-02-01T22:49:19.868Z,100246.81
2023-02-01T22:51:46.398Z,100240.91
2023-02-01T22:54:21.479Z,100237.03
2023-02-01T22:56:48.310Z,100245.00
2023-02-01T22:59:15.169Z,100250.44
2023-02-01T23:01:41.901Z,100239.78
2023-02-01T23:04:12.021Z,100247.81
2023-02-01T23:06:38.703Z,100236.53
2023-02-01T23:09:25.940Z,100248.00
2023-02-01T23:11:53.670Z,100238.50
2023-02-01T23:14:20.262Z,100242.09
2023-02-01T23:16:49.508Z,100224.59
2023-02-01T23:19:16.801Z,100235.03
2023-02-01T23:21:43.558Z,100219.44
2023-02-01T23:24:11.168Z,100215.00
2023-02-01T23:26:38.239Z,100212.38
2023-02-01T23:29:05.626Z,100217.03
2023-02-01T23:31:34.184Z,100210.16
2023-02-01T23:34:02.270Z,100209.22
2023-02-01T23:36:29.354Z,100218.06
2023-02-01T23:38:56.083Z,100209.22
2023-02-01T23:41:23.792Z,100219.59
2023-02-01T23:43:59.861Z,100208.22
2023-02-01T23:46:29.404Z,100213.69
2023-02-01T23:48:56.612Z,100195.25
2023-02-01T23:51:23.987Z,100205.47
2023-02-01T23:53:51.123Z,100186.06
2023-02-01T23:56:33.367Z,100185.97
2023-02-01T23:59:05.307Z,100175.97
